createdAt,value
2022-09-02T00:01:29.647Z,98993.79
2022-09-02T00:03:59.620Z,98991.48
2022-09-02T00:06:29.474Z,98991.22
2022-09-02T00:08:57.061Z,98991.86
2022-09-02T00:11:27.714Z,98990.63
2022-09-02T00:13:57.198Z,98993.34
2022-09-02T00:16:25.357Z,98996.78
2022-09-02T00:18:53.793Z,98997.92
2022-09-02T00:21:21.577Z,98998.79
2022-09-02T00:23:49.218Z,98997.84
2022-09-02T00:26:16.350Z,98995.70
2022-09-02T00:28:46.281Z,98994.06
2022-09-02T00:31:19.885Z,98995.42
2022-09-02T00:33:47.025Z,98995.30
2022-09-02T00:36:14.085Z,98994.10
2022-09-02T00:38:41.580Z,98994.77
2022-09-02T00:41:11.225Z,98992.44
2022-09-02T00:43:46.161Z,98988.91
2022-09-02T00:46:16.467Z,98988.52
2022-09-02T00:48:49.729Z,98985.19
2022-09-02T00:51:16.906Z,98986.23
2022-09-02T00:53:46.803Z,98988.69
2022-09-02T00:56:20.171Z,98981.40
2022-09-02T00:58:48.946Z,98980.89
2022-09-02T01:01:16.062Z,98976.14
2022-09-02T01:03:43.303Z,98975.60
2022-09-02T01:06:15.557Z,98978.10
2022-09-02T01:08:47.461Z,98979.23
2022-09-02T01:11:14.408Z,98976.10
2022-09-02T01:13:43.288Z,98977.90
2022-09-02T01:16:23.463Z,98978.13
2022-09-02T01:18:53.901Z,98977.20
2022-09-02T01:21:21.622Z,98976.64
2022-09-02T01:23:49.390Z,98977.54
2022-09-02T01:26:18.442Z,98972.61
2022-09-02T01:28:45.375Z,98972.19
2022-09-02T01:31:12.994Z,98973.67
2022-09-02T01:33:39.997Z,98972.71
2022-09-02T01:36:08.291Z,98971.33
2022-09-02T01:38:35.372Z,98971.98
2022-09-02T01:41:03.372Z,98973.18
2022-09-02T01:43:30.912Z,98973.94
2022-09-02T01:45:59.566Z,98973.50
2022-09-02T01:48:28.235Z,98978.36
2022-09-02T01:50:59.605Z,98979.39
2022-09-02T01:53:27.778Z,98985.41
2022-09-02T01:55:54.800Z,98985.16
2022-09-02T01:58:22.255Z,98983.73
2022-09-02T02:00:49.876Z,98980.08
2022-09-02T02:03:17.424Z,98975.72
2022-09-02T02:05:45.048Z,98972.66
2022-09-02T02:08:13.540Z,98972.33
2022-09-02T02:10:42.923Z,98973.59
2022-09-02T02:13:11.206Z,98970.09
2022-09-02T02:15:42.718Z,98965.33
2022-09-02T02:18:11.136Z,98966.88
2022-09-02T02:20:38.322Z,98969.30
2022-09-02T02:23:06.964Z,98967.16
2022-09-02T02:25:33.936Z,98968.02
2022-09-02T02:28:01.017Z,98968.92
2022-09-02T02:30:29.915Z,98970.38
2022-09-02T02:32:57.801Z,98967.63
2022-09-02T02:35:25.976Z,98967.62
2022-09-02T02:37:52.904Z,98968.04
2022-09-02T02:40:22.816Z,98970.27
2022-09-02T02:42:53.413Z,98970.35
2022-09-02T02:45:22.501Z,98969.36
2022-09-02T02:47:51.265Z,98967.72
2022-09-02T02:50:21.249Z,98972.14
2022-09-02T02:52:49.060Z,98970.61
2022-09-02T02:55:17.403Z,98968.92
2022-09-02T02:57:44.936Z,98966.91
2022-09-02T03:00:16.293Z,98964.94
2022-09-02T03:02:43.480Z,98967.12
2022-09-02T03:05:13.096Z,98970.91
2022-09-02T03:07:41.006Z,98965.20
2022-09-02T03:10:10.257Z,98959.76
2022-09-02T03:12:39.717Z,98960.67
2022-09-02T03:15:08.744Z,98965.29
2022-09-02T03:17:35.724Z,98960.54
2022-09-02T03:20:04.988Z,98957.75
2022-09-02T03:22:33.543Z,98955.42
2022-09-02T03:25:00.418Z,98955.95
2022-09-02T03:27:27.376Z,98955.19
2022-09-02T03:29:56.885Z,98952.07
2022-09-02T03:32:23.706Z,98955.05
2022-09-02T03:34:56.196Z,98955.89
2022-09-02T03:37:23.599Z,98954.65
2022-09-02T03:39:50.766Z,98956.10
2022-09-02T03:42:19.623Z,98960.00
2022-09-02T03:44:49.212Z,98960.59
2022-09-02T03:47:17.833Z,98965.04
2022-09-02T03:49:48.032Z,98964.24
2022-09-02T03:52:15.083Z,98964.98
2022-09-02T03:54:41.972Z,98969.64
2022-09-02T03:57:09.713Z,98967.48
2022-09-02T03:59:36.818Z,98969.08
2022-09-02T04:02:04.077Z,98969.44
2022-09-02T04:04:31.135Z,98971.01
2022-09-02T04:06:59.177Z,98968.03
2022-09-02T04:09:26.929Z,98972.64
2022-09-02T04:11:54.374Z,98973.78
2022-09-02T04:14:21.423Z,98972.28
2022-09-02T04:16:48.316Z,98971.77
2022-09-02T04:19:15.251Z,98974.61
2022-09-02T04:21:42.353Z,98976.27
2022-09-02T04:24:11.410Z,98980.26
2022-09-02T04:26:45.306Z,98981.63
2022-09-02T04:29:14.044Z,98976.59
2022-09-02T04:31:41.196Z,98976.98
2022-09-02T04:34:08.241Z,98982.10
2022-09-02T04:36:35.374Z,98976.55
2022-09-02T04:39:04.753Z,98975.98
2022-09-02T04:41:33.068Z,98977.52
2022-09-02T04:44:03.245Z,98979.11
2022-09-02T04:46:34.204Z,98981.25
2022-09-02T04:49:05.148Z,98982.59
2022-09-02T04:51:32.822Z,98982.86
2022-09-02T04:54:01.132Z,98979.02
2022-09-02T04:56:30.416Z,98982.00
2022-09-02T04:58:58.589Z,98982.39
2022-09-02T05:01:28.331Z,98983.40
2022-09-02T05:03:56.239Z,98982.36
2022-09-02T05:06:28.362Z,98977.59
2022-09-02T05:08:59.713Z,98978.32
2022-09-02T05:11:31.328Z,98980.92
2022-09-02T05:14:01.754Z,98978.34
2022-09-02T05:16:32.917Z,98968.79
2022-09-02T05:19:00.468Z,98966.91
2022-09-02T05:21:32.121Z,98968.33
2022-09-02T05:24:01.994Z,98968.70
2022-09-02T05:26:28.945Z,98966.35
2022-09-02T05:28:56.894Z,98965.57
2022-09-02T05:31:24.697Z,98965.40
2022-09-02T05:33:53.468Z,98963.08
2022-09-02T05:36:22.687Z,98961.95
2022-09-02T05:38:50.051Z,98961.04
2022-09-02T05:41:24.795Z,98960.66
2022-09-02T05:44:01.342Z,98961.83
2022-09-02T05:46:30.967Z,98963.34
2022-09-02T05:49:06.361Z,98965.45
2022-09-02T05:51:45.081Z,98966.38
2022-09-02T05:54:30.273Z,98963.94
2022-09-02T05:57:00.804Z,98963.58
2022-09-02T05:59:30.682Z,98963.58
2022-09-02T06:01:58.765Z,98966.09
2022-09-02T06:04:26.789Z,98965.23
2022-09-02T06:06:54.637Z,98960.65
2022-09-02T06:09:24.137Z,98960.45
2022-09-02T06:11:52.204Z,98961.56
2022-09-02T06:14:25.586Z,98960.27
2022-09-02T06:16:55.012Z,98957.65
2022-09-02T06:19:30.524Z,98963.64
2022-09-02T06:21:57.829Z,98965.04
2022-09-02T06:24:26.783Z,98966.98
2022-09-02T06:26:55.905Z,98961.54
2022-09-02T06:29:25.574Z,98959.04
2022-09-02T06:31:53.956Z,98962.41
2022-09-02T06:34:24.107Z,98964.64
2022-09-02T06:36:51.537Z,98965.36
2022-09-02T06:39:21.799Z,98964.73
2022-09-02T06:41:49.676Z,98966.47
2022-09-02T06:44:21.728Z,98967.17
2022-09-02T06:46:54.907Z,98965.05
2022-09-02T06:49:23.400Z,98969.04
2022-09-02T06:51:52.829Z,98963.70
2022-09-02T06:54:21.741Z,98964.99
2022-09-02T06:56:51.409Z,98965.54
2022-09-02T06:59:22.523Z,98965.02
2022-09-02T07:01:53.015Z,98966.60
2022-09-02T07:04:37.620Z,98962.29
2022-09-02T07:07:08.371Z,98966.02
2022-09-02T07:09:40.830Z,98969.45
2022-09-02T07:12:11.463Z,98968.52
2022-09-02T07:14:44.265Z,98972.63
2022-09-02T07:17:17.818Z,98968.13
2022-09-02T07:19:48.729Z,98965.08
2022-09-02T07:22:18.865Z,98966.48
2022-09-02T07:24:46.866Z,98969.52
2022-09-02T07:27:14.792Z,98968.54
2022-09-02T07:29:44.211Z,98965.38
2022-09-02T07:32:11.731Z,98965.02
2022-09-02T07:34:38.600Z,98960.16
2022-09-02T07:37:10.620Z,98957.30
2022-09-02T07:39:38.796Z,98957.73
2022-09-02T07:42:07.603Z,98961.34
2022-09-02T07:44:34.730Z,98953.26
2022-09-02T07:47:01.731Z,98955.19
2022-09-02T07:50:15.587Z,98959.83
2022-09-02T07:52:17.524Z,98959.61
2022-09-02T07:54:45.517Z,98961.77
2022-09-02T07:57:12.471Z,98958.60
2022-09-02T07:59:40.262Z,98954.82
2022-09-02T08:02:09.569Z,98954.83
2022-09-02T08:04:36.529Z,98957.80
2022-09-02T08:07:06.542Z,98957.02
2022-09-02T08:09:33.431Z,98954.77
2022-09-02T08:12:00.284Z,98953.75
2022-09-02T08:14:28.848Z,98948.27
2022-09-02T08:16:58.246Z,98945.71
2022-09-02T08:19:26.404Z,98948.33
2022-09-02T08:21:53.494Z,98947.06
2022-09-02T08:24:20.544Z,98947.05
2022-09-02T08:26:47.355Z,98949.24
2022-09-02T08:29:14.233Z,98952.81
2022-09-02T08:31:41.391Z,98953.54
2022-09-02T08:34:08.243Z,98954.34
2022-09-02T08:36:35.076Z,98952.96
2022-09-02T08:39:03.884Z,98951.80
2022-09-02T08:41:39.328Z,98949.70
2022-09-02T08:44:07.645Z,98950.11
2022-09-02T08:46:36.105Z,98953.23
2022-09-02T08:49:08.840Z,98943.98
2022-09-02T08:51:52.896Z,98944.21
2022-09-02T08:54:37.504Z,98943.66
2022-09-02T08:57:05.423Z,98939.39
2022-09-02T08:59:32.511Z,98943.95
2022-09-02T09:02:17.933Z,98943.66
2022-09-02T09:05:06.337Z,98938.96
2022-09-02T09:07:48.873Z,98930.56
2022-09-02T09:10:35.763Z,98928.19
2022-09-02T09:13:19.686Z,98924.52
2022-09-02T09:15:52.367Z,98919.46
2022-09-02T09:18:31.354Z,98919.59
2022-09-02T09:20:58.151Z,98920.48
2022-09-02T09:23:34.706Z,98913.10
2022-09-02T09:26:11.445Z,98907.90
2022-09-02T09:28:41.082Z,98907.69
2022-09-02T09:31:13.633Z,98914.52
2022-09-02T09:33:41.658Z,98910.42
2022-09-02T09:36:10.091Z,98908.21
2022-09-02T09:38:40.484Z,98904.90
2022-09-02T09:41:24.805Z,98906.71
2022-09-02T09:43:51.601Z,98912.48
2022-09-02T09:46:34.409Z,98912.65
2022-09-02T09:49:01.394Z,98905.73
2022-09-02T09:51:28.277Z,98908.03
2022-09-02T09:54:15.964Z,98910.44
2022-09-02T09:56:43.100Z,98910.09
2022-09-02T09:59:36.983Z,98909.68
2022-09-02T10:02:04.385Z,98910.67
2022-09-02T10:04:43.276Z,98909.63
2022-09-02T10:07:13.740Z,98905.51
2022-09-02T10:09:40.897Z,98904.14
2022-09-02T10:12:11.444Z,98901.09
2022-09-02T10:14:44.347Z,98904.41
2022-09-02T10:17:32.451Z,98903.85
2022-09-02T10:20:08.129Z,98899.13
2022-09-02T10:22:59.415Z,98900.92
2022-09-02T10:25:49.863Z,98898.09
2022-09-02T10:28:36.195Z,98897.59
2022-09-02T10:31:24.042Z,98900.56
2022-09-02T10:34:14.532Z,98898.29
2022-09-02T10:36:50.399Z,98893.83
2022-09-02T10:39:30.574Z,98885.98
2022-09-02T10:42:11.847Z,98888.95
2022-09-02T10:44:58.801Z,98888.06
2022-09-02T10:47:38.576Z,98886.96
2022-09-02T10:50:27.083Z,98879.18
2022-09-02T10:53:05.880Z,98880.02
2022-09-02T10:56:00.454Z,98882.06
2022-09-02T10:58:39.942Z,98873.84
2022-09-02T11:01:13.616Z,98866.79
2022-09-02T11:03:43.543Z,98862.08
2022-09-02T11:06:23.052Z,98865.27
2022-09-02T11:08:56.201Z,98863.38
2022-09-02T11:11:41.112Z,98868.77
2022-09-02T11:14:22.758Z,98865.52
2022-09-02T11:16:58.717Z,98861.61
2022-09-02T11:19:45.535Z,98861.54
2022-09-02T11:22:27.354Z,98853.16
2022-09-02T11:25:00.399Z,98850.98
2022-09-02T11:27:46.333Z,98855.16
2022-09-02T11:30:15.049Z,98854.53
2022-09-02T11:32:51.010Z,98849.42
2022-09-02T11:35:27.569Z,98850.52
2022-09-02T11:37:58.916Z,98848.77
2022-09-02T11:40:34.691Z,98851.36
2022-09-02T11:43:03.313Z,98847.36
2022-09-02T11:45:47.188Z,98850.05
2022-09-02T11:48:29.633Z,98835.60
2022-09-02T11:51:24.931Z,98841.53
2022-09-02T11:53:56.016Z,98847.69
2022-09-02T11:56:29.153Z,98845.27
2022-09-02T11:58:57.413Z,98841.98
2022-09-02T12:01:29.436Z,98840.95
2022-09-02T12:07:08.690Z,98839.61
2022-09-02T12:12:38.554Z,98842.48
2022-09-02T12:15:06.654Z,98839.38
2022-09-02T12:17:37.988Z,98840.64
2022-09-02T12:20:08.952Z,98836.30
2022-09-02T12:22:38.982Z,98835.98
2022-09-02T12:25:26.798Z,98831.46
2022-09-02T12:28:10.161Z,98827.31
2022-09-02T12:30:57.436Z,98817.73
2022-09-02T12:33:33.438Z,98812.94
2022-09-02T12:36:04.803Z,98804.83
2022-09-02T12:38:37.673Z,98801.41
2022-09-02T12:41:05.051Z,98803.83
2022-09-02T12:43:48.084Z,98797.14
2022-09-02T12:46:28.742Z,98793.98
2022-09-02T12:49:13.063Z,98794.71
2022-09-02T12:51:58.195Z,98797.48
2022-09-02T12:54:41.642Z,98796.25
2022-09-02T12:57:10.463Z,98792.66
2022-09-02T12:59:40.964Z,98795.31
2022-09-02T13:02:17.575Z,98792.39
2022-09-02T13:05:15.679Z,98790.44
2022-09-02T13:07:59.852Z,98779.33
2022-09-02T13:10:40.133Z,98770.05
2022-09-02T13:13:16.014Z,98773.04
2022-09-02T13:16:15.601Z,98771.89
2022-09-02T13:19:05.606Z,98774.26
2022-09-02T13:21:54.741Z,98773.60
2022-09-02T13:24:52.771Z,98773.96
2022-09-02T13:27:39.470Z,98775.59
2022-09-02T13:30:29.839Z,98778.34
2022-09-02T13:33:05.866Z,98776.23
2022-09-02T13:35:36.726Z,98775.44
2022-09-02T13:38:03.635Z,98775.79
2022-09-02T13:40:34.699Z,98779.20
2022-09-02T13:43:04.340Z,98775.25
2022-09-02T13:45:35.342Z,98775.14
2022-09-02T13:48:10.033Z,98767.98
2022-09-02T13:50:42.645Z,98763.47
2022-09-02T13:56:09.891Z,98772.71
2022-09-02T13:58:42.727Z,98771.33
2022-09-02T14:01:22.125Z,98769.11
2022-09-02T14:03:53.257Z,98771.27
2022-09-02T14:06:24.808Z,98770.55
2022-09-02T14:08:56.517Z,98765.16
2022-09-02T14:11:23.834Z,98769.81
2022-09-02T14:13:51.868Z,98769.90
2022-09-02T14:16:26.941Z,98771.13
2022-09-02T14:19:17.319Z,98769.90
2022-09-02T14:21:47.086Z,98770.45
2022-09-02T14:24:16.393Z,98769.88
2022-09-02T14:26:46.580Z,98764.30
2022-09-02T14:29:16.650Z,98764.58
2022-09-02T14:31:44.545Z,98757.09
2022-09-02T14:34:42.731Z,98756.05
2022-09-02T14:37:28.770Z,98750.00
2022-09-02T14:40:11.790Z,98753.52
2022-09-02T14:42:45.421Z,98754.91
2022-09-02T14:45:13.565Z,98757.20
2022-09-02T14:47:41.501Z,98755.42
2022-09-02T14:50:12.436Z,98756.42
2022-09-02T14:52:46.945Z,98751.42
2022-09-02T14:55:43.944Z,98750.88
2022-09-02T14:58:10.870Z,98743.42
2022-09-02T15:00:39.323Z,98740.31
2022-09-02T15:03:07.180Z,98737.98
2022-09-02T15:05:34.093Z,98740.50
2022-09-02T15:08:00.965Z,98736.98
2022-09-02T15:10:28.073Z,98738.45
2022-09-02T15:12:57.579Z,98740.45
2022-09-02T15:15:25.196Z,98742.01
2022-09-02T15:17:52.041Z,98743.48
2022-09-02T15:20:18.864Z,98740.98
2022-09-02T15:22:45.677Z,98740.39
2022-09-02T15:25:12.907Z,98741.45
2022-09-02T15:27:39.854Z,98742.30
2022-09-02T15:30:09.427Z,98743.55
2022-09-02T15:32:37.873Z,98745.39
2022-09-02T15:35:06.960Z,98746.89
2022-09-02T15:37:37.752Z,98748.34
2022-09-02T15:40:07.389Z,98745.03
2022-09-02T15:42:35.748Z,98744.70
2022-09-02T15:45:04.899Z,98745.92
2022-09-02T15:47:35.234Z,98744.39
2022-09-02T15:50:02.103Z,98748.86
2022-09-02T15:52:28.887Z,98746.09
2022-09-02T15:54:55.725Z,98742.46
2022-09-02T15:57:22.682Z,98745.60
2022-09-02T15:59:49.553Z,98743.83
2022-09-02T16:02:16.428Z,98744.45
2022-09-02T16:04:43.299Z,98747.95
2022-09-02T16:07:10.158Z,98748.44
2022-09-02T16:09:43.753Z,98747.63
2022-09-02T16:12:11.224Z,98750.18
2022-09-02T16:14:38.089Z,98753.63
2022-09-02T16:17:05.075Z,98752.79
2022-09-02T16:19:32.015Z,98751.02
2022-09-02T16:21:59.487Z,98749.80
2022-09-02T16:24:27.057Z,98748.89
2022-09-02T16:26:54.001Z,98750.55
2022-09-02T16:29:21.178Z,98751.02
2022-09-02T16:34:36.147Z,98753.70
2022-09-02T16:37:03.066Z,98751.29
2022-09-02T16:39:30.025Z,98753.63
2022-09-02T16:41:58.287Z,98753.67
2022-09-02T16:44:26.942Z,98749.93
2022-09-02T16:46:54.194Z,98745.27
2022-09-02T16:49:22.273Z,98745.44
2022-09-02T16:51:57.779Z,98743.95
2022-09-02T16:54:31.219Z,98742.64
2022-09-02T16:57:00.325Z,98738.93
2022-09-02T16:59:27.706Z,98738.73
2022-09-02T17:01:54.636Z,98741.45
2022-09-02T17:04:21.545Z,98747.02
2022-09-02T17:06:48.775Z,98741.20
2022-09-02T17:09:16.419Z,98745.33
2022-09-02T17:11:45.446Z,98746.41
2022-09-02T17:14:16.631Z,98746.55
2022-09-02T17:16:48.194Z,98748.68
2022-09-02T17:19:21.893Z,98749.38
2022-09-02T17:21:50.988Z,98748.39
2022-09-02T17:24:19.394Z,98749.18
2022-09-02T17:26:48.284Z,98750.50
2022-09-02T17:29:46.994Z,98750.63
2022-09-02T17:32:05.715Z,98754.37
2022-09-02T17:34:33.858Z,98754.61
2022-09-02T17:37:00.787Z,98753.20
2022-09-02T17:39:27.685Z,98752.76
2022-09-02T17:41:54.557Z,98755.02
2022-09-02T17:44:23.475Z,98756.09
2022-09-02T17:46:51.130Z,98758.81
2022-09-02T17:49:18.629Z,98762.27
2022-09-02T17:51:46.658Z,98763.73
2022-09-02T17:54:14.988Z,98766.13
2022-09-02T17:57:01.294Z,98767.09
2022-09-02T18:00:00.544Z,98761.14
2022-09-02T18:02:36.157Z,98766.08
2022-09-02T18:05:11.325Z,98770.06
2022-09-02T18:08:01.046Z,98770.92
2022-09-02T18:10:38.101Z,98770.67
2022-09-02T18:13:09.666Z,98769.02
2022-09-02T18:15:48.470Z,98773.16
2022-09-02T18:18:17.108Z,98773.73
2022-09-02T18:20:48.300Z,98775.81
2022-09-02T18:23:47.519Z,98777.40
2022-09-02T18:26:45.843Z,98776.98
2022-09-02T18:29:21.303Z,98778.84
2022-09-02T18:32:19.319Z,98777.20
2022-09-02T18:35:03.069Z,98778.52
2022-09-02T18:37:53.234Z,98786.39
2022-09-02T18:40:40.237Z,98787.05
2022-09-02T18:43:19.900Z,98784.27
2022-09-02T18:45:50.224Z,98783.41
2022-09-02T18:48:20.493Z,98785.00
2022-09-02T18:50:53.886Z,98785.67
2022-09-02T18:53:27.252Z,98785.30
2022-09-02T18:55:54.997Z,98783.42
2022-09-02T18:58:34.279Z,98786.04
2022-09-02T19:01:10.693Z,98783.15
2022-09-02T19:03:37.891Z,98786.66
2022-09-02T19:06:08.759Z,98785.28
2022-09-02T19:08:38.301Z,98784.38
2022-09-02T19:11:08.194Z,98781.31
2022-09-02T19:13:56.128Z,98778.36
2022-09-02T19:16:27.594Z,98777.40
2022-09-02T19:18:55.046Z,98778.67
2022-09-02T19:21:31.422Z,98781.94
2022-09-02T19:23:58.234Z,98780.04
2022-09-02T19:26:25.058Z,98781.48
2022-09-02T19:28:53.133Z,98783.23
2022-09-02T19:31:23.110Z,98786.10
2022-09-02T19:33:52.906Z,98787.15
2022-09-02T19:36:23.725Z,98786.21
2022-09-02T19:38:54.263Z,98789.14
2022-09-02T19:41:21.153Z,98785.18
2022-09-02T19:43:48.094Z,98786.89
2022-09-02T19:46:43.919Z,98788.74
2022-09-02T19:49:01.757Z,98791.25
2022-09-02T19:51:28.816Z,98789.35
2022-09-02T19:53:56.667Z,98790.58
2022-09-02T19:56:23.561Z,98794.10
2022-09-02T19:58:50.390Z,98793.40
2022-09-02T20:01:17.276Z,98794.85
2022-09-02T20:03:46.530Z,98792.83
2022-09-02T20:06:13.345Z,98786.17
2022-09-02T20:08:40.171Z,98785.50
2022-09-02T20:11:07.539Z,98780.80
2022-09-02T20:13:40.156Z,98784.42
2022-09-02T20:16:17.895Z,98788.17
2022-09-02T20:18:45.617Z,98791.86
2022-09-02T20:21:19.779Z,98790.44
2022-09-02T20:23:46.609Z,98794.80
2022-09-02T20:26:45.699Z,98791.70
2022-09-02T20:29:36.281Z,98788.73
2022-09-02T20:32:08.271Z,98787.94
2022-09-02T20:34:39.043Z,98789.55
2022-09-02T20:37:30.265Z,98788.38
2022-09-02T20:40:13.126Z,98786.42
2022-09-02T20:43:11.366Z,98793.05
2022-09-02T20:45:44.540Z,98793.09
2022-09-02T20:48:14.433Z,98794.90
2022-09-02T20:50:48.460Z,98801.61
2022-09-02T20:53:43.322Z,98803.85
2022-09-02T20:56:34.882Z,98800.78
2022-09-02T20:59:10.639Z,98802.48
2022-09-02T21:01:40.167Z,98802.54
2022-09-02T21:04:26.962Z,98806.53
2022-09-02T21:07:13.038Z,98807.42
2022-09-02T21:09:56.127Z,98811.41
2022-09-02T21:12:36.768Z,98809.75
2022-09-02T21:15:13.278Z,98816.58
2022-09-02T21:17:48.652Z,98816.11
2022-09-02T21:20:24.794Z,98820.54
2022-09-02T21:22:57.257Z,98821.66
2022-09-02T21:25:30.300Z,98815.64
2022-09-02T21:28:03.398Z,98818.81
2022-09-02T21:30:37.369Z,98816.02
2022-09-02T21:33:08.863Z,98814.78
2022-09-02T21:35:41.262Z,98817.81
2022-09-02T21:38:15.111Z,98817.17
2022-09-02T21:40:58.252Z,98815.83
2022-09-02T21:43:45.494Z,98817.92
2022-09-02T21:46:21.317Z,98818.94
2022-09-02T21:49:03.912Z,98818.50
2022-09-02T21:51:36.738Z,98820.98
2022-09-02T21:54:20.423Z,98820.73
2022-09-02T21:57:10.329Z,98818.03
2022-09-02T21:59:54.346Z,98816.09
2022-09-02T22:02:47.184Z,98819.56
2022-09-02T22:05:39.837Z,98816.45
2022-09-02T22:08:15.827Z,98818.39
2022-09-02T22:10:50.154Z,98818.30
2022-09-02T22:13:16.826Z,98820.15
2022-09-02T22:16:03.018Z,98818.39
2022-09-02T22:18:31.223Z,98812.39
2022-09-02T22:21:02.602Z,98812.67
2022-09-02T22:23:30.237Z,98815.98
2022-09-02T22:26:16.995Z,98818.80
2022-09-02T22:28:49.219Z,98820.36
2022-09-02T22:31:21.641Z,98824.20
2022-09-02T22:33:55.721Z,98824.17
2022-09-02T22:36:35.184Z,98820.91
2022-09-02T22:39:02.535Z,98819.90
2022-09-02T22:41:35.904Z,98816.23
2022-09-02T22:44:18.133Z,98818.56
2022-09-02T22:47:20.274Z,98816.64
2022-09-02T22:50:07.281Z,98816.28
2022-09-02T22:52:57.408Z,98808.95
2022-09-02T22:55:42.744Z,98809.41
2022-09-02T22:58:33.315Z,98803.55
2022-09-02T23:01:15.930Z,98799.66
2022-09-02T23:04:05.728Z,98796.27
2022-09-02T23:06:33.517Z,98797.89
2022-09-02T23:09:09.817Z,98798.92
2022-09-02T23:12:08.240Z,98795.52
2022-09-02T23:15:00.024Z,98793.75
2022-09-02T23:17:34.890Z,98795.85
2022-09-02T23:20:06.059Z,98795.33
2022-09-02T23:22:52.746Z,98795.39
2022-09-02T23:25:52.175Z,98794.48
2022-09-02T23:28:32.186Z,98794.84
2022-09-02T23:31:17.957Z,98789.02
2022-09-02T23:34:03.247Z,98784.88
2022-09-02T23:36:47.493Z,98781.83
2022-09-02T23:39:37.430Z,98783.88
2022-09-02T23:42:04.646Z,98778.20
2022-09-02T23:44:31.585Z,98780.45
2022-09-02T23:47:02.363Z,98776.88
2022-09-02T23:50:01.260Z,98777.04
2022-09-02T23:52:56.559Z,98786.45
2022-09-02T23:55:39.498Z,98783.86
2022-09-02T23:58:32.517Z,98787.59
